createdAt,value
2019-03-23T00:00:24.827Z,101191.61
2019-03-23T00:02:54.078Z,101185.83
2019-03-23T00:05:23.221Z,101189.47
2019-03-23T00:07:52.391Z,101184.77
2019-03-23T00:10:21.537Z,101179.13
2019-03-23T00:12:50.737Z,101177.41
2019-03-23T00:15:19.985Z,101177.47
2019-03-23T00:17:49.277Z,101174.94
2019-03-23T00:20:18.474Z,101177.12
2019-03-23T00:22:47.661Z,101169.83
2019-03-23T00:25:16.915Z,101164.20
2019-03-23T00:27:46.139Z,101162.19
2019-03-23T00:30:15.580Z,101161.84
2019-03-23T00:32:44.722Z,101158.02
2019-03-23T00:35:13.941Z,101156.78
2019-03-23T00:37:43.049Z,101144.42
2019-03-23T00:40:12.360Z,101148.30
2019-03-23T00:42:41.571Z,101131.62
2019-03-23T00:45:11.345Z,101127.45
2019-03-23T00:47:40.494Z,101135.66
2019-03-23T00:50:10.002Z,101126.38
2019-03-23T00:52:39.203Z,101119.14
2019-03-23T00:55:08.822Z,101118.91
2019-03-23T00:57:38.955Z,101114.69
2019-03-23T01:00:13.489Z,101110.03
2019-03-23T01:02:42.699Z,101113.19
2019-03-23T01:05:12.794Z,101108.55
2019-03-23T01:07:42.060Z,101106.59
2019-03-23T01:10:12.378Z,101096.32
2019-03-23T01:12:41.580Z,101099.12
2019-03-23T01:15:12.618Z,101099.41
2019-03-23T01:17:41.827Z,101090.91
2019-03-23T01:20:12.550Z,101092.83
2019-03-23T01:22:41.873Z,101088.39
2019-03-23T01:25:11.812Z,101085.16
2019-03-23T01:27:41.049Z,101090.16
2019-03-23T01:30:12.685Z,101096.77
2019-03-23T01:32:41.812Z,101099.30
2019-03-23T01:35:11.883Z,101097.28
2019-03-23T01:37:41.118Z,101099.45
2019-03-23T01:40:10.637Z,101100.42
2019-03-23T01:42:39.765Z,101097.52
2019-03-23T01:45:11.590Z,101098.39
2019-03-23T01:47:40.793Z,101102.21
2019-03-23T01:50:11.521Z,101091.64
2019-03-23T01:52:40.769Z,101095.87
2019-03-23T01:55:10.791Z,101097.27
2019-03-23T01:57:39.867Z,101088.38
2019-03-23T02:00:11.687Z,101089.78
2019-03-23T02:02:40.937Z,101083.84
2019-03-23T02:05:10.530Z,101089.47
2019-03-23T02:07:39.772Z,101087.81
2019-03-23T02:10:10.770Z,101091.02
2019-03-23T02:12:39.976Z,101091.02
2019-03-23T02:15:11.221Z,101082.09
2019-03-23T02:17:40.421Z,101093.22
2019-03-23T02:20:11.652Z,101102.30
2019-03-23T02:22:40.887Z,101097.14
2019-03-23T02:25:10.497Z,101098.86
2019-03-23T02:27:39.710Z,101101.89
2019-03-23T02:30:11.045Z,101099.27
2019-03-23T02:32:40.172Z,101103.54
2019-03-23T02:35:09.590Z,101100.05
2019-03-23T02:37:38.838Z,101101.89
2019-03-23T02:40:10.130Z,101095.09
2019-03-23T02:42:39.272Z,101102.88
2019-03-23T02:45:10.926Z,101097.39
2019-03-23T02:47:40.152Z,101091.52
2019-03-23T02:50:10.495Z,101095.34
2019-03-23T02:52:39.790Z,101094.96
2019-03-23T02:55:10.977Z,101096.58
2019-03-23T02:57:40.486Z,101098.78
2019-03-23T03:00:14.669Z,101101.88
2019-03-23T03:02:43.808Z,101102.08
2019-03-23T03:05:13.718Z,101106.55
2019-03-23T03:07:43.948Z,101097.59
2019-03-23T03:10:22.223Z,101105.33
2019-03-23T03:12:51.322Z,101101.97
2019-03-23T03:15:20.583Z,101100.03
2019-03-23T03:17:49.719Z,101098.84
2019-03-23T03:20:18.961Z,101106.53
2019-03-23T03:22:48.030Z,101100.64
2019-03-23T03:25:17.149Z,101099.86
2019-03-23T03:27:46.254Z,101099.86
2019-03-23T03:30:15.567Z,101094.84
2019-03-23T03:32:44.629Z,101102.26
2019-03-23T03:35:13.881Z,101105.38
2019-03-23T03:37:56.035Z,101104.92
2019-03-23T03:40:14.238Z,101104.92
2019-03-23T03:42:43.426Z,101101.56
2019-03-23T03:45:15.550Z,101105.06
2019-03-23T03:47:44.678Z,101107.73
2019-03-23T03:50:14.019Z,101107.69
2019-03-23T03:52:43.102Z,101098.44
2019-03-23T03:55:12.294Z,101090.75
2019-03-23T03:57:41.619Z,101097.65
2019-03-23T04:00:11.481Z,101097.65
2019-03-23T04:02:41.633Z,101102.94
2019-03-23T04:05:11.084Z,101102.94
2019-03-23T04:07:40.288Z,101104.81
2019-03-23T04:10:10.605Z,101100.98
2019-03-23T04:12:39.835Z,101100.17
2019-03-23T04:15:10.626Z,101095.56
2019-03-23T04:17:40.000Z,101092.61
2019-03-23T04:20:10.548Z,101092.61
2019-03-23T04:22:39.768Z,101089.30
2019-03-23T04:25:10.634Z,101098.27
2019-03-23T04:27:39.962Z,101100.34
2019-03-23T04:30:11.171Z,101097.43
2019-03-23T04:32:40.455Z,101106.78
2019-03-23T04:35:10.287Z,101100.34
2019-03-23T04:37:39.444Z,101100.34
2019-03-23T04:40:11.016Z,101117.27
2019-03-23T04:42:40.249Z,101117.27
2019-03-23T04:45:10.663Z,101112.45
2019-03-23T04:47:39.950Z,101112.41
2019-03-23T04:50:11.384Z,101113.64
2019-03-23T04:52:40.581Z,101114.84
2019-03-23T04:55:11.831Z,101113.42
2019-03-23T04:57:41.642Z,101113.42
2019-03-23T05:00:16.086Z,101115.45
2019-03-23T05:02:45.295Z,101112.92
2019-03-23T05:05:14.543Z,101122.22
2019-03-23T05:07:43.735Z,101124.30
2019-03-23T05:10:13.347Z,101131.80
2019-03-23T05:12:42.652Z,101131.80
2019-03-23T05:15:11.852Z,101118.36
2019-03-23T05:17:41.039Z,101128.39
2019-03-23T05:20:11.415Z,101124.95
2019-03-23T05:22:40.613Z,101124.95
2019-03-23T05:25:12.730Z,101136.39
2019-03-23T05:27:41.883Z,101121.27
2019-03-23T05:30:11.089Z,101124.48
2019-03-23T05:32:40.228Z,101126.22
2019-03-23T05:35:09.482Z,101134.32
2019-03-23T05:37:38.624Z,101138.09
2019-03-23T05:40:08.027Z,101138.05
2019-03-23T05:42:37.272Z,101138.05
2019-03-23T05:45:07.369Z,101129.11
2019-03-23T05:47:36.510Z,101131.02
2019-03-23T05:50:09.369Z,101134.63
2019-03-23T05:52:38.577Z,101131.66
2019-03-23T05:55:08.085Z,101131.05
2019-03-23T05:57:37.267Z,101128.89
2019-03-23T06:00:09.565Z,101131.57
2019-03-23T06:02:38.843Z,101128.58
2019-03-23T06:05:11.975Z,101126.81
2019-03-23T06:07:41.077Z,101135.37
2019-03-23T06:10:10.282Z,101135.13
2019-03-23T06:12:39.370Z,101127.88
2019-03-23T06:15:08.775Z,101138.39
2019-03-23T06:17:37.907Z,101131.25
2019-03-23T06:20:08.451Z,101131.36
2019-03-23T06:22:37.568Z,101131.99
2019-03-23T06:25:07.173Z,101131.34
2019-03-23T06:27:36.415Z,101130.14
2019-03-23T06:30:08.415Z,101129.91
2019-03-23T06:32:37.626Z,101130.30
2019-03-23T06:35:08.474Z,101133.49
2019-03-23T06:37:37.681Z,101140.17
2019-03-23T06:40:09.558Z,101133.36
2019-03-23T06:42:38.837Z,101137.96
2019-03-23T06:45:10.213Z,101134.00
2019-03-23T06:47:39.369Z,101133.91
2019-03-23T06:50:10.640Z,101138.66
2019-03-23T06:52:39.712Z,101136.78
2019-03-23T06:55:09.727Z,101134.89
2019-03-23T06:57:38.996Z,101138.72
2019-03-23T07:00:11.194Z,101140.61
2019-03-23T07:02:40.420Z,101138.89
2019-03-23T07:05:10.326Z,101136.15
2019-03-23T07:07:39.854Z,101136.31
2019-03-23T07:10:11.985Z,101141.91
2019-03-23T07:12:41.231Z,101142.83
2019-03-23T07:15:19.958Z,101138.55
2019-03-23T07:17:45.415Z,101149.52
2019-03-23T07:20:15.314Z,101145.33
2019-03-23T07:22:44.626Z,101138.48
2019-03-23T07:25:14.823Z,101138.55
2019-03-23T07:27:44.150Z,101139.44
2019-03-23T07:30:17.322Z,101135.89
2019-03-23T07:32:46.537Z,101132.96
2019-03-23T07:35:16.385Z,101129.72
2019-03-23T07:37:45.543Z,101131.91
2019-03-23T07:40:15.217Z,101130.98
2019-03-23T07:42:44.407Z,101136.95
2019-03-23T07:45:15.009Z,101132.73
2019-03-23T07:47:44.176Z,101126.72
2019-03-23T07:50:14.634Z,101131.73
2019-03-23T07:52:43.831Z,101133.78
2019-03-23T07:55:17.099Z,101131.73
2019-03-23T07:57:46.857Z,101134.86
2019-03-23T08:00:21.290Z,101129.86
2019-03-23T08:02:50.580Z,101134.41
2019-03-23T08:05:26.141Z,101126.56
2019-03-23T08:07:55.282Z,101127.86
2019-03-23T08:10:33.266Z,101125.36
2019-03-23T08:13:02.917Z,101124.95
2019-03-23T08:15:32.291Z,101121.08
2019-03-23T08:18:01.557Z,101122.21
2019-03-23T08:20:30.757Z,101120.78
2019-03-23T08:22:59.907Z,101124.17
2019-03-23T08:25:29.222Z,101130.45
2019-03-23T08:27:58.460Z,101123.11
2019-03-23T08:30:27.604Z,101120.86
2019-03-23T08:32:56.847Z,101114.58
2019-03-23T08:35:26.069Z,101114.14
2019-03-23T08:37:55.292Z,101106.73
2019-03-23T08:40:24.483Z,101108.19
2019-03-23T08:42:53.776Z,101109.49
2019-03-23T08:45:23.202Z,101095.01
2019-03-23T08:47:52.390Z,101102.18
2019-03-23T08:50:21.462Z,101098.90
2019-03-23T08:52:50.662Z,101098.05
2019-03-23T08:55:21.894Z,101099.66
2019-03-23T08:57:50.762Z,101098.03
2019-03-23T09:00:20.015Z,101097.31
2019-03-23T09:02:49.197Z,101092.23
2019-03-23T09:05:18.403Z,101084.61
2019-03-23T09:07:47.627Z,101080.02
2019-03-23T09:10:16.931Z,101077.65
2019-03-23T09:12:46.152Z,101074.69
2019-03-23T09:15:15.369Z,101074.20
2019-03-23T09:17:44.623Z,101073.03
2019-03-23T09:20:14.126Z,101063.24
2019-03-23T09:22:43.283Z,101070.99
2019-03-23T09:25:12.546Z,101067.30
2019-03-23T09:27:41.710Z,101064.55
2019-03-23T09:30:12.598Z,101072.36
2019-03-23T09:32:41.785Z,101067.79
2019-03-23T09:35:10.989Z,101058.38
2019-03-23T09:37:40.222Z,101058.04
2019-03-23T09:40:11.042Z,101058.31
2019-03-23T09:42:40.585Z,101062.55
2019-03-23T09:45:10.033Z,101052.62
2019-03-23T09:47:39.275Z,101056.61
2019-03-23T09:50:10.680Z,101061.25
2019-03-23T09:52:39.906Z,101045.83
2019-03-23T09:55:09.474Z,101049.97
2019-03-23T09:57:40.055Z,101036.55
2019-03-23T10:00:11.908Z,101043.69
2019-03-23T10:02:41.162Z,101038.38
2019-03-23T10:05:10.365Z,101038.78
2019-03-23T10:07:39.597Z,101044.50
2019-03-23T10:10:09.154Z,101046.65
2019-03-23T10:12:38.388Z,101047.86
2019-03-23T10:15:08.805Z,101043.78
2019-03-23T10:17:38.055Z,101044.34
2019-03-23T10:20:07.958Z,101043.73
2019-03-23T10:22:37.248Z,101038.88
2019-03-23T10:25:08.871Z,101034.75
2019-03-23T10:27:38.094Z,101036.45
2019-03-23T10:30:09.732Z,101033.52
2019-03-23T10:32:39.023Z,101033.03
2019-03-23T10:35:10.022Z,101032.90
2019-03-23T10:37:39.237Z,101036.97
2019-03-23T10:40:10.777Z,101031.44
2019-03-23T10:42:39.994Z,101024.47
2019-03-23T10:45:10.413Z,101022.92
2019-03-23T10:47:39.776Z,101025.23
2019-03-23T10:50:09.665Z,101016.77
2019-03-23T10:52:38.820Z,101021.90
2019-03-23T10:55:08.308Z,101012.17
2019-03-23T10:57:37.559Z,101012.02
2019-03-23T11:00:12.032Z,101016.31
2019-03-23T11:02:41.279Z,101006.57
2019-03-23T11:05:11.022Z,100991.84
2019-03-23T11:07:40.284Z,100997.11
2019-03-23T11:10:12.396Z,100989.53
2019-03-23T11:12:41.616Z,100984.52
2019-03-23T11:15:11.451Z,100990.49
2019-03-23T11:17:40.596Z,100983.09
2019-03-23T11:20:16.527Z,100972.44
2019-03-23T11:22:45.946Z,100962.67
2019-03-23T11:25:15.727Z,100964.92
2019-03-23T11:27:45.035Z,100960.27
2019-03-23T11:30:15.198Z,100964.74
2019-03-23T11:32:44.554Z,100964.77
2019-03-23T11:35:14.375Z,100961.59
2019-03-23T11:37:43.772Z,100951.72
2019-03-23T11:40:13.287Z,100954.13
2019-03-23T11:42:49.860Z,100944.97
2019-03-23T11:45:14.144Z,100943.73
2019-03-23T11:47:43.365Z,100949.96
2019-03-23T11:50:13.197Z,100938.30
2019-03-23T11:52:42.450Z,100925.37
2019-03-23T11:55:12.316Z,100928.75
2019-03-23T11:57:41.538Z,100918.77
2019-03-23T12:00:14.070Z,100913.50
2019-03-23T12:02:43.334Z,100910.56
2019-03-23T12:05:12.895Z,100919.72
2019-03-23T12:07:42.267Z,100914.58
2019-03-23T12:10:13.591Z,100915.64
2019-03-23T12:12:42.827Z,100907.17
2019-03-23T12:15:13.268Z,100913.55
2019-03-23T12:17:42.525Z,100910.45
2019-03-23T12:20:11.951Z,100910.16
2019-03-23T12:22:41.225Z,100902.53
2019-03-23T12:25:10.962Z,100900.88
2019-03-23T12:27:40.280Z,100893.59
2019-03-23T12:30:18.866Z,100889.62
2019-03-23T12:32:49.558Z,100890.45
2019-03-23T12:35:18.719Z,100893.44
2019-03-23T12:37:47.983Z,100884.80
2019-03-23T12:40:17.511Z,100882.81
2019-03-23T12:42:46.651Z,100885.83
2019-03-23T12:45:16.283Z,100875.61
2019-03-23T12:47:45.505Z,100885.50
2019-03-23T12:50:15.097Z,100878.39
2019-03-23T12:52:44.297Z,100872.84
2019-03-23T12:55:13.788Z,100861.07
2019-03-23T12:57:43.005Z,100870.97
2019-03-23T13:00:14.880Z,100868.55
2019-03-23T13:02:44.290Z,100860.77
2019-03-23T13:05:13.698Z,100862.92
2019-03-23T13:07:42.952Z,100852.48
2019-03-23T13:10:13.673Z,100851.50
2019-03-23T13:12:42.979Z,100854.95
2019-03-23T13:15:15.140Z,100848.33
2019-03-23T13:17:44.422Z,100852.38
2019-03-23T13:20:14.569Z,100845.03
2019-03-23T13:22:44.117Z,100837.06
2019-03-23T13:25:13.335Z,100843.17
2019-03-23T13:27:42.538Z,100841.31
2019-03-23T13:30:14.685Z,100831.06
2019-03-23T13:32:43.916Z,100829.64
2019-03-23T13:35:13.208Z,100825.20
2019-03-23T13:37:42.558Z,100821.27
2019-03-23T13:40:12.977Z,100806.50
2019-03-23T13:42:42.273Z,100816.33
2019-03-23T13:45:12.799Z,100816.23
2019-03-23T13:47:42.072Z,100811.31
2019-03-23T13:50:12.951Z,100807.73
2019-03-23T13:52:42.273Z,100801.18
2019-03-23T13:55:26.682Z,100796.41
2019-03-23T13:57:56.064Z,100796.28
2019-03-23T14:00:25.369Z,100787.97
2019-03-23T14:02:54.564Z,100787.64
2019-03-23T14:05:24.180Z,100784.70
2019-03-23T14:07:53.537Z,100781.09
2019-03-23T14:10:23.044Z,100773.19
2019-03-23T14:12:52.321Z,100769.24
2019-03-23T14:15:21.596Z,100767.66
2019-03-23T14:17:50.735Z,100760.85
2019-03-23T14:20:20.063Z,100758.56
2019-03-23T14:22:49.293Z,100747.22
2019-03-23T14:25:18.507Z,100745.56
2019-03-23T14:27:47.684Z,100746.59
2019-03-23T14:30:16.885Z,100749.00
2019-03-23T14:32:46.199Z,100744.64
2019-03-23T14:35:15.406Z,100743.22
2019-03-23T14:37:44.720Z,100734.39
2019-03-23T14:40:14.519Z,100724.97
2019-03-23T14:42:43.707Z,100731.95
2019-03-23T14:45:13.301Z,100733.03
2019-03-23T14:47:42.552Z,100726.66
2019-03-23T14:50:11.964Z,100734.34
2019-03-23T14:52:41.118Z,100735.19
2019-03-23T14:55:10.744Z,100726.69
2019-03-23T14:57:40.569Z,100732.39
2019-03-23T15:00:10.908Z,100727.58
2019-03-23T15:02:40.275Z,100734.70
2019-03-23T15:05:09.617Z,100738.10
2019-03-23T15:07:38.764Z,100737.08
2019-03-23T15:10:09.872Z,100734.86
2019-03-23T15:12:39.177Z,100730.05
2019-03-23T15:15:08.719Z,100730.95
2019-03-23T15:17:37.853Z,100734.67
2019-03-23T15:20:08.189Z,100729.70
2019-03-23T15:22:37.398Z,100732.76
2019-03-23T15:25:07.118Z,100735.32
2019-03-23T15:27:36.351Z,100734.11
2019-03-23T15:30:09.864Z,100736.80
2019-03-23T15:32:40.525Z,100733.59
2019-03-23T15:35:10.083Z,100735.34
2019-03-23T15:37:39.223Z,100732.55
2019-03-23T15:40:09.333Z,100730.47
2019-03-23T15:42:38.561Z,100720.90
2019-03-23T15:45:09.567Z,100726.52
2019-03-23T15:47:38.799Z,100721.68
2019-03-23T15:50:09.226Z,100722.22
2019-03-23T15:52:38.458Z,100725.50
2019-03-23T15:55:08.162Z,100719.46
2019-03-23T15:57:37.497Z,100724.25
2019-03-23T16:00:09.288Z,100721.89
2019-03-23T16:02:38.593Z,100720.56
2019-03-23T16:05:08.232Z,100717.06
2019-03-23T16:07:37.446Z,100718.47
2019-03-23T16:10:08.976Z,100719.26
2019-03-23T16:12:38.198Z,100718.16
2019-03-23T16:15:12.167Z,100720.81
2019-03-23T16:17:41.361Z,100727.00
2019-03-23T16:20:13.494Z,100725.60
2019-03-23T16:22:42.844Z,100723.02
2019-03-23T16:25:12.549Z,100723.19
2019-03-23T16:27:41.786Z,100726.00
2019-03-23T16:30:12.761Z,100733.84
2019-03-23T16:32:41.916Z,100725.80
2019-03-23T16:35:13.087Z,100736.80
2019-03-23T16:37:42.437Z,100740.16
2019-03-23T16:40:12.263Z,100742.33
2019-03-23T16:42:45.577Z,100740.06
2019-03-23T16:45:13.290Z,100738.06
2019-03-23T16:47:42.529Z,100743.19
2019-03-23T16:50:12.383Z,100738.00
2019-03-23T16:52:41.603Z,100738.52
2019-03-23T16:55:11.317Z,100739.33
2019-03-23T16:57:43.235Z,100740.09
2019-03-23T17:00:14.469Z,100739.25
2019-03-23T17:02:43.712Z,100743.36
2019-03-23T17:05:13.471Z,100743.69
2019-03-23T17:07:42.732Z,100743.77
2019-03-23T17:10:12.259Z,100737.85
2019-03-23T17:12:41.545Z,100744.55
2019-03-23T17:15:12.090Z,100742.91
2019-03-23T17:17:41.243Z,100744.52
2019-03-23T17:20:10.927Z,100739.40
2019-03-23T17:22:40.233Z,100744.40
2019-03-23T17:25:10.210Z,100738.92
2019-03-23T17:27:39.464Z,100740.47
2019-03-23T17:30:09.802Z,100739.06
2019-03-23T17:32:39.475Z,100736.20
2019-03-23T17:35:08.859Z,100751.58
2019-03-23T17:37:38.044Z,100743.95
2019-03-23T17:40:08.367Z,100745.03
2019-03-23T17:42:37.634Z,100747.77
2019-03-23T17:45:10.068Z,100745.62
2019-03-23T17:47:39.365Z,100746.67
2019-03-23T17:50:09.135Z,100745.27
2019-03-23T17:52:38.289Z,100754.05
2019-03-23T17:55:07.933Z,100754.29
2019-03-23T17:57:37.295Z,100760.70
2019-03-23T18:00:08.279Z,100760.22
2019-03-23T18:02:38.227Z,100755.45
2019-03-23T18:05:08.505Z,100759.89
2019-03-23T18:07:37.709Z,100764.52
2019-03-23T18:10:08.008Z,100769.62
2019-03-23T18:12:37.246Z,100771.16
2019-03-23T18:15:08.742Z,100769.33
2019-03-23T18:17:38.038Z,100781.84
2019-03-23T18:20:08.468Z,100775.02
2019-03-23T18:22:37.686Z,100775.34
2019-03-23T18:25:08.289Z,100779.01
2019-03-23T18:27:37.476Z,100781.25
2019-03-23T18:30:15.421Z,100782.22
2019-03-23T18:32:44.756Z,100779.56
2019-03-23T18:35:13.965Z,100779.80
2019-03-23T18:37:43.304Z,100778.33
2019-03-23T18:40:12.686Z,100784.97
2019-03-23T18:42:41.927Z,100782.42
2019-03-23T18:45:11.417Z,100788.58
2019-03-23T18:47:40.587Z,100793.42
2019-03-23T18:50:09.904Z,100790.88
2019-03-23T18:52:39.152Z,100793.36
2019-03-23T18:55:08.813Z,100795.48
2019-03-23T18:57:38.451Z,100796.53
2019-03-23T19:00:09.253Z,100801.41
2019-03-23T19:02:38.584Z,100796.14
2019-03-23T19:05:08.191Z,100799.66
2019-03-23T19:07:37.366Z,100797.52
2019-03-23T19:10:07.838Z,100805.01
2019-03-23T19:12:37.046Z,100809.48
2019-03-23T19:15:07.574Z,100804.16
2019-03-23T19:17:36.847Z,100810.28
2019-03-23T19:20:08.956Z,100810.49
2019-03-23T19:22:38.947Z,100814.94
2019-03-23T19:25:17.004Z,100809.86
2019-03-23T19:27:39.481Z,100817.25
2019-03-23T19:30:09.269Z,100815.88
2019-03-23T19:32:38.718Z,100812.65
2019-03-23T19:35:08.671Z,100824.22
2019-03-23T19:37:38.982Z,100828.07
2019-03-23T19:40:09.202Z,100822.12
2019-03-23T19:42:38.496Z,100825.11
2019-03-23T19:45:08.235Z,100819.11
2019-03-23T19:47:37.493Z,100822.58
2019-03-23T19:50:08.323Z,100825.04
2019-03-23T19:52:37.625Z,100827.47
2019-03-23T19:55:10.311Z,100838.31
2019-03-23T19:57:39.555Z,100841.13
2019-03-23T20:00:11.023Z,100842.55
2019-03-23T20:02:40.286Z,100840.53
2019-03-23T20:05:09.863Z,100834.61
2019-03-23T20:07:39.215Z,100837.58
2019-03-23T20:10:10.274Z,100837.59
2019-03-23T20:12:39.620Z,100831.57
2019-03-23T20:15:09.413Z,100830.31
2019-03-23T20:17:38.990Z,100839.72
2019-03-23T20:20:09.739Z,100842.70
2019-03-23T20:22:39.133Z,100847.73
2019-03-23T20:25:08.985Z,100842.27
2019-03-23T20:27:38.329Z,100838.64
2019-03-23T20:30:11.545Z,100839.84
2019-03-23T20:32:40.853Z,100839.47
2019-03-23T20:35:10.654Z,100838.45
2019-03-23T20:37:39.974Z,100839.02
2019-03-23T20:40:10.185Z,100839.59
2019-03-23T20:42:39.689Z,100841.27
2019-03-23T20:45:10.512Z,100845.98
2019-03-23T20:47:41.484Z,100846.84
2019-03-23T20:50:10.822Z,100843.95
2019-03-23T20:52:42.098Z,100845.06
2019-03-23T20:55:17.070Z,100849.91
2019-03-23T20:57:46.627Z,100840.22
2019-03-23T21:00:16.136Z,100843.39
2019-03-23T21:02:45.449Z,100839.95
2019-03-23T21:05:14.817Z,100836.32
2019-03-23T21:07:44.261Z,100834.44
2019-03-23T21:10:13.809Z,100833.88
2019-03-23T21:12:43.021Z,100834.06
2019-03-23T21:15:12.349Z,100840.93
2019-03-23T21:17:51.044Z,100842.23
2019-03-23T21:20:12.836Z,100836.70
2019-03-23T21:22:41.983Z,100837.92
2019-03-23T21:25:11.452Z,100836.89
2019-03-23T21:27:40.607Z,100835.38
2019-03-23T21:30:13.300Z,100839.84
2019-03-23T21:32:42.599Z,100842.23
2019-03-23T21:35:12.430Z,100840.55
2019-03-23T21:37:41.720Z,100845.10
2019-03-23T21:40:11.002Z,100846.11
2019-03-23T21:42:40.229Z,100846.37
2019-03-23T21:45:09.930Z,100843.12
2019-03-23T21:47:39.182Z,100854.34
2019-03-23T21:50:09.598Z,100844.38
2019-03-23T21:52:39.022Z,100843.03
2019-03-23T21:55:09.201Z,100844.08
2019-03-23T21:57:38.585Z,100847.66
2019-03-23T22:00:09.011Z,100844.66
2019-03-23T22:02:38.303Z,100843.78
2019-03-23T22:05:07.978Z,100841.52
2019-03-23T22:07:37.218Z,100841.38
2019-03-23T22:10:08.298Z,100841.54
2019-03-23T22:12:37.808Z,100841.45
2019-03-23T22:15:08.646Z,100843.50
2019-03-23T22:17:38.009Z,100846.81
2019-03-23T22:20:08.773Z,100846.20
2019-03-23T22:22:38.260Z,100846.69
2019-03-23T22:25:08.217Z,100842.22
2019-03-23T22:27:38.427Z,100844.82
2019-03-23T22:30:14.694Z,100835.75
2019-03-23T22:32:44.050Z,100837.36
2019-03-23T22:35:13.812Z,100837.43
2019-03-23T22:37:43.069Z,100836.61
2019-03-23T22:40:13.304Z,100837.04
2019-03-23T22:42:42.658Z,100835.38
2019-03-23T22:45:13.198Z,100834.68
2019-03-23T22:47:42.669Z,100835.23
2019-03-23T22:50:11.898Z,100834.84
2019-03-23T22:52:41.178Z,100834.09
2019-03-23T22:55:10.411Z,100826.07
2019-03-23T22:57:39.628Z,100830.50
2019-03-23T23:00:13.491Z,100826.30
2019-03-23T23:02:42.785Z,100832.34
2019-03-23T23:05:12.085Z,100836.13
2019-03-23T23:07:42.030Z,100830.16
2019-03-23T23:10:11.466Z,100833.90
2019-03-23T23:12:40.760Z,100832.50
2019-03-23T23:15:10.305Z,100834.05
2019-03-23T23:17:39.644Z,100837.75
2019-03-23T23:20:09.370Z,100829.69
2019-03-23T23:22:38.691Z,100831.02
2019-03-23T23:25:08.380Z,100832.53
2019-03-23T23:27:37.599Z,100829.15
2019-03-23T23:30:11.217Z,100824.19
2019-03-23T23:32:40.551Z,100823.09
2019-03-23T23:35:10.471Z,100820.15
2019-03-23T23:37:39.769Z,100816.27
2019-03-23T23:40:10.056Z,100814.97
2019-03-23T23:42:39.315Z,100818.06
2019-03-23T23:45:15.247Z,100826.36
2019-03-23T23:47:40.310Z,100817.52
2019-03-23T23:50:10.224Z,100819.02
2019-03-23T23:52:39.511Z,100823.19
2019-03-23T23:55:09.056Z,100821.55
2019-03-23T23:57:38.347Z,100813.02
